Weather at Warner Springs Gliderport Airport

Public forecast

Using degrees Fahrenheit for public forecast. Weather courtesy of forecast.io.

Closest aviation weather report (METAR) to Warner Springs Gliderport Airport

Closest report is Ramona Airport, 19.0 nm (35.3 km) SW. Retrieved 2021/12/01 17:53 UTC (21 minutes ago):

KRNM 011753Z 09013KT 10SM CLR 28/M05 A3011 RMK AO2 SLP184 T02831050 10283 20028 50003

Closest aviation forecast (TAF) to Warner Springs Gliderport Airport

Closest forecast is McClellan-Palomar Airport, 31.8 nm (58.9 km) WSW. Retrieved 2021/12/01 18:28 UTC (0 seconds ago):

TAF KCRQ 011726Z 0118/0218 25007KT P6SM SKC FM020100 VRB04KT P6SM SCT003 FM020300 VRB04KT 2SM BR BKN003 FM020900 VRB04KT 1SM BR OVC002 FM021600 VRB04KT 3SM BR BKN004 FM021700 VRB04KT 5SM BR SCT005